createdAt,value
2023-02-17T00:03:06.467Z,100863.44
2023-02-17T00:07:08.181Z,100857.34
2023-02-17T00:11:10.263Z,100857.25
2023-02-17T00:15:12.385Z,100852.25
2023-02-17T00:19:25.065Z,100850.38
2023-02-17T00:23:27.472Z,100855.41
2023-02-17T00:27:29.474Z,100850.13
2023-02-17T00:31:31.505Z,100846.66
2023-02-17T00:35:34.580Z,100853.53
2023-02-17T00:39:37.359Z,100846.69
2023-02-17T00:43:39.437Z,100845.63
2023-02-17T00:47:41.401Z,100846.22
2023-02-17T00:51:45.984Z,100839.50
2023-02-17T00:55:48.535Z,100839.41
2023-02-17T00:59:50.706Z,100829.94
2023-02-17T01:03:52.695Z,100816.94
2023-02-17T01:07:55.734Z,100822.84
2023-02-17T01:11:57.791Z,100815.88
2023-02-17T01:16:00.096Z,100814.69
2023-02-17T01:20:02.116Z,100824.78
2023-02-17T01:24:06.332Z,100813.59
2023-02-17T01:28:15.429Z,100816.84
2023-02-17T01:32:17.421Z,100806.63
2023-02-17T01:36:20.518Z,100803.31
2023-02-17T01:40:22.926Z,100799.59
2023-02-17T01:44:26.225Z,100785.09
2023-02-17T01:48:33.043Z,100785.94
2023-02-17T01:52:35.039Z,100777.38
2023-02-17T01:56:41.028Z,100775.78
2023-02-17T02:00:43.301Z,100776.63
2023-02-17T02:04:48.388Z,100780.28
2023-02-17T02:09:03.168Z,100769.22
2023-02-17T02:13:06.961Z,100766.72
2023-02-17T02:17:31.839Z,100768.16
2023-02-17T02:21:58.626Z,100759.63
2023-02-17T02:26:13.743Z,100753.38
2023-02-17T02:30:40.400Z,100754.63
2023-02-17T02:34:50.896Z,100751.09
2023-02-17T02:39:07.428Z,100744.00
2023-02-17T02:43:09.797Z,100745.91
2023-02-17T02:47:50.184Z,100737.19
2023-02-17T02:52:12.670Z,100719.06
2023-02-17T02:56:36.672Z,100706.16
2023-02-17T03:00:45.583Z,100708.34
2023-02-17T03:04:55.740Z,100713.22
2023-02-17T03:09:06.280Z,100702.91
2023-02-17T03:13:08.391Z,100707.34
2023-02-17T03:17:12.367Z,100713.31
2023-02-17T03:21:17.219Z,100710.59
2023-02-17T03:25:19.188Z,100697.22
2023-02-17T03:29:21.788Z,100700.25
2023-02-17T03:33:23.719Z,100694.31
2023-02-17T03:37:27.627Z,100695.78
2023-02-17T03:41:29.912Z,100693.47
2023-02-17T03:45:32.024Z,100693.72
2023-02-17T03:49:33.985Z,100692.66
2023-02-17T03:53:36.103Z,100691.78
2023-02-17T03:57:38.141Z,100694.63
2023-02-17T04:01:40.301Z,100704.94
2023-02-17T04:05:44.613Z,100688.66
2023-02-17T04:09:46.621Z,100681.56
2023-02-17T04:13:48.557Z,100678.81
2023-02-17T04:17:50.845Z,100674.97
2023-02-17T04:21:52.970Z,100670.00
2023-02-17T04:25:55.311Z,100677.06
2023-02-17T04:29:56.981Z,100683.75
2023-02-17T04:33:58.986Z,100692.09
2023-02-17T04:38:00.624Z,100685.66
2023-02-17T04:42:02.662Z,100679.19
2023-02-17T04:46:05.335Z,100687.69
2023-02-17T04:50:09.509Z,100677.66
2023-02-17T04:54:11.450Z,100662.97
2023-02-17T04:58:13.610Z,100662.53
2023-02-17T05:02:15.528Z,100657.59
2023-02-17T05:06:17.504Z,100666.94
2023-02-17T05:10:20.027Z,100680.72
2023-02-17T05:14:21.986Z,100665.75
2023-02-17T05:18:24.266Z,100655.28
2023-02-17T05:22:27.196Z,100646.63
2023-02-17T05:26:29.162Z,100653.88
2023-02-17T05:30:31.370Z,100654.50
2023-02-17T05:34:33.367Z,100647.63
2023-02-17T05:38:36.304Z,100665.91
2023-02-17T05:42:38.074Z,100658.63
2023-02-17T05:46:40.248Z,100662.31
2023-02-17T05:50:42.234Z,100657.63
2023-02-17T05:54:44.573Z,100655.47
2023-02-17T05:58:46.610Z,100652.09
2023-02-17T06:02:48.824Z,100642.91
2023-02-17T06:06:50.968Z,100646.38
2023-02-17T06:10:54.014Z,100647.97
2023-02-17T06:14:56.012Z,100639.94
2023-02-17T06:19:00.090Z,100639.75
2023-02-17T06:23:02.067Z,100631.16
2023-02-17T06:27:04.043Z,100633.59
2023-02-17T06:31:06.121Z,100633.63
2023-02-17T06:35:08.482Z,100644.78
2023-02-17T06:39:10.570Z,100643.94
2023-02-17T06:43:12.573Z,100636.66
2023-02-17T06:47:14.612Z,100636.56
2023-02-17T06:51:16.564Z,100636.25
2023-02-17T06:55:18.663Z,100626.72
2023-02-17T06:59:20.588Z,100620.41
2023-02-17T07:03:22.631Z,100617.34
2023-02-17T07:07:24.790Z,100620.72
2023-02-17T07:11:31.220Z,100614.88
2023-02-17T07:15:33.172Z,100606.31
2023-02-17T07:19:35.177Z,100604.63
2023-02-17T07:23:38.385Z,100610.78
2023-02-17T07:27:40.413Z,100593.91
2023-02-17T07:31:42.430Z,100578.53
2023-02-17T07:35:44.533Z,100579.66
2023-02-17T07:39:46.497Z,100565.88
2023-02-17T07:43:49.018Z,100581.31
2023-02-17T07:47:52.093Z,100577.31
2023-02-17T07:51:54.120Z,100579.13
2023-02-17T07:55:56.214Z,100574.78
2023-02-17T07:59:58.233Z,100562.88
2023-02-17T08:04:00.237Z,100566.47
2023-02-17T08:08:20.673Z,100573.19
2023-02-17T08:12:41.359Z,100568.25
2023-02-17T08:16:43.580Z,100564.50
2023-02-17T08:20:45.596Z,100566.28
2023-02-17T08:24:47.752Z,100565.22
2023-02-17T08:28:49.822Z,100573.75
2023-02-17T08:32:51.812Z,100578.84
2023-02-17T08:36:53.887Z,100574.78
2023-02-17T08:40:55.878Z,100576.25
2023-02-17T08:44:58.162Z,100575.19
2023-02-17T08:49:00.286Z,100570.19
2023-02-17T08:53:02.744Z,100582.06
2023-02-17T08:57:05.030Z,100569.75
2023-02-17T09:01:07.516Z,100586.31
2023-02-17T09:05:09.966Z,100593.69
2023-02-17T09:09:14.300Z,100594.53
2023-02-17T09:13:16.736Z,100592.63
2023-02-17T09:17:18.844Z,100577.34
2023-02-17T09:21:21.529Z,100589.44
2023-02-17T09:25:23.666Z,100588.59
2023-02-17T09:29:25.658Z,100581.34
2023-02-17T09:33:27.747Z,100562.00
2023-02-17T09:37:29.791Z,100548.31
2023-02-17T09:41:40.771Z,100532.84
2023-02-17T09:45:46.878Z,100515.25
2023-02-17T09:49:57.083Z,100515.44
2023-02-17T09:54:19.291Z,100506.16
2023-02-17T09:58:32.253Z,100488.09
2023-02-17T10:02:58.583Z,100485.84
2023-02-17T10:07:13.414Z,100478.28
2023-02-17T10:11:29.826Z,100471.22
2023-02-17T10:15:36.263Z,100472.63
2023-02-17T10:19:54.323Z,100458.25
2023-02-17T10:23:56.488Z,100451.47
2023-02-17T10:28:08.808Z,100456.63
2023-02-17T10:32:20.166Z,100448.06
2023-02-17T10:36:42.443Z,100451.72
2023-02-17T10:40:50.049Z,100456.69
2023-02-17T10:44:54.707Z,100448.00
2023-02-17T10:48:59.029Z,100437.31
2023-02-17T10:53:01.005Z,100424.34
2023-02-17T10:57:08.159Z,100414.47
2023-02-17T11:01:10.613Z,100406.91
2023-02-17T11:05:33.902Z,100396.81
2023-02-17T11:09:44.857Z,100389.28
2023-02-17T11:14:08.215Z,100387.22
2023-02-17T11:18:21.594Z,100362.69
2023-02-17T11:22:32.683Z,100351.69
2023-02-17T11:26:36.309Z,100347.78
2023-02-17T11:30:41.174Z,100340.16
2023-02-17T11:34:44.390Z,100339.88
2023-02-17T11:38:46.448Z,100332.03
2023-02-17T11:42:55.658Z,100318.91
2023-02-17T11:47:38.916Z,100309.47
2023-02-17T11:52:02.265Z,100302.00
2023-02-17T11:56:15.534Z,100305.09
2023-02-17T12:00:51.527Z,100293.03
2023-02-17T12:05:08.779Z,100282.78
2023-02-17T12:09:23.905Z,100271.22
2023-02-17T12:13:50.448Z,100259.09
2023-02-17T12:18:22.245Z,100247.72
2023-02-17T12:22:47.056Z,100239.00
2023-02-17T12:27:42.215Z,100222.88
2023-02-17T12:32:03.191Z,100200.47
2023-02-17T12:36:11.214Z,100180.16
2023-02-17T12:40:31.021Z,100168.06
2023-02-17T12:44:39.851Z,100153.59
2023-02-17T12:48:55.257Z,100149.13
2023-02-17T12:53:02.495Z,100145.16
2023-02-17T12:57:10.728Z,100141.78
2023-02-17T13:01:18.992Z,100137.69
2023-02-17T13:05:27.925Z,100131.56
2023-02-17T13:09:32.612Z,100132.22
2023-02-17T13:13:35.569Z,100117.56
2023-02-17T13:17:40.472Z,100114.81
2023-02-17T13:21:54.589Z,100115.63
2023-02-17T13:26:14.160Z,100102.50
2023-02-17T13:30:22.487Z,100106.25
2023-02-17T13:34:36.452Z,100096.13
2023-02-17T13:38:38.527Z,100098.34
2023-02-17T13:42:49.881Z,100090.59
2023-02-17T13:46:53.206Z,100108.66
2023-02-17T13:50:56.174Z,100100.91
2023-02-17T13:55:05.158Z,100111.19
2023-02-17T13:59:18.759Z,100111.66
2023-02-17T14:03:28.098Z,100112.34
2023-02-17T14:07:34.752Z,100108.97
2023-02-17T14:11:36.778Z,100108.59
2023-02-17T14:15:50.549Z,100115.41
2023-02-17T14:19:52.681Z,100095.91
2023-02-17T14:23:56.565Z,100080.63
2023-02-17T14:27:58.552Z,100076.78
2023-02-17T14:32:00.874Z,100063.72
2023-02-17T14:36:07.798Z,100049.66
2023-02-17T14:40:26.021Z,100043.44
2023-02-17T14:44:27.682Z,100033.97
2023-02-17T14:48:29.695Z,100026.94
2023-02-17T14:52:31.738Z,100010.63
2023-02-17T14:56:37.588Z,99996.00
2023-02-17T15:00:39.595Z,99986.88
2023-02-17T15:04:41.649Z,99978.41
2023-02-17T15:08:45.965Z,99968.44
2023-02-17T15:12:48.102Z,99959.53
2023-02-17T15:16:50.115Z,99949.41
2023-02-17T15:20:52.468Z,99948.56
2023-02-17T15:24:54.423Z,99951.69
2023-02-17T15:28:59.933Z,99935.22
2023-02-17T15:33:02.590Z,99928.34
2023-02-17T15:37:04.534Z,99928.09
2023-02-17T15:41:14.048Z,99923.88
2023-02-17T15:45:19.636Z,99908.63
2023-02-17T15:49:22.723Z,99896.09
2023-02-17T15:53:24.861Z,99879.53
2023-02-17T15:57:27.009Z,99877.09
2023-02-17T16:01:32.027Z,99874.81
2023-02-17T16:05:34.204Z,99870.88
2023-02-17T16:09:36.235Z,99867.06
2023-02-17T16:13:38.460Z,99857.56
2023-02-17T16:17:40.699Z,99846.03
2023-02-17T16:21:42.763Z,99834.97
2023-02-17T16:25:46.332Z,99832.44
2023-02-17T16:29:48.382Z,99816.09
2023-02-17T16:33:51.662Z,99810.81
2023-02-17T16:37:59.839Z,99802.97
2023-02-17T16:42:01.860Z,99802.28
2023-02-17T16:46:05.625Z,99788.13
2023-02-17T16:50:08.802Z,99796.41
2023-02-17T16:54:11.982Z,99793.00
2023-02-17T16:58:17.931Z,99777.94
2023-02-17T17:02:21.730Z,99773.97
2023-02-17T17:06:26.868Z,99758.75
2023-02-17T17:10:31.444Z,99751.00
2023-02-17T17:14:33.642Z,99744.91
2023-02-17T17:18:35.710Z,99732.72
2023-02-17T17:22:37.367Z,99723.75
2023-02-17T17:26:43.932Z,99717.91
2023-02-17T17:30:46.766Z,99713.84
2023-02-17T17:34:52.043Z,99702.78
2023-02-17T17:38:55.488Z,99683.94
2023-02-17T17:42:57.594Z,99666.66
2023-02-17T17:46:59.517Z,99660.94
2023-02-17T17:51:01.608Z,99638.94
2023-02-17T17:55:03.444Z,99642.38
2023-02-17T17:59:06.370Z,99641.47
2023-02-17T18:03:08.430Z,99627.41
2023-02-17T18:07:10.603Z,99634.28
2023-02-17T18:11:17.468Z,99622.72
2023-02-17T18:15:19.790Z,99617.63
2023-02-17T18:19:21.821Z,99610.66
2023-02-17T18:23:23.827Z,99595.34
2023-02-17T18:27:25.869Z,99594.44
2023-02-17T18:31:29.688Z,99592.19
2023-02-17T18:35:38.563Z,99573.81
2023-02-17T18:39:40.818Z,99566.03
2023-02-17T18:43:42.817Z,99556.38
2023-02-17T18:47:46.255Z,99565.03
2023-02-17T18:51:48.581Z,99547.94
2023-02-17T18:55:50.651Z,99566.81
2023-02-17T18:59:52.922Z,99549.16
2023-02-17T19:03:55.903Z,99554.56
2023-02-17T19:07:58.479Z,99555.78
2023-02-17T19:12:00.788Z,99541.66
2023-02-17T19:16:12.467Z,99533.50
2023-02-17T19:20:17.059Z,99529.00
2023-02-17T19:24:19.218Z,99520.91
2023-02-17T19:28:21.701Z,99535.81
2023-02-17T19:32:23.843Z,99521.19
2023-02-17T19:36:26.786Z,99509.69
2023-02-17T19:40:28.943Z,99510.69
2023-02-17T19:44:31.820Z,99503.47
2023-02-17T19:48:34.556Z,99499.72
2023-02-17T19:52:37.928Z,99512.34
2023-02-17T19:56:40.090Z,99495.81
2023-02-17T20:00:42.491Z,99502.91
2023-02-17T20:04:44.737Z,99498.44
2023-02-17T20:08:51.547Z,99494.25
2023-02-17T20:12:53.918Z,99485.84
2023-02-17T20:16:56.538Z,99468.66
2023-02-17T20:20:58.605Z,99474.41
2023-02-17T20:25:00.853Z,99461.59
2023-02-17T20:29:03.151Z,99458.00
2023-02-17T20:33:05.925Z,99441.00
2023-02-17T20:37:09.770Z,99435.09
2023-02-17T20:41:16.626Z,99431.38
2023-02-17T20:45:18.724Z,99411.09
2023-02-17T20:49:21.499Z,99427.88
2023-02-17T20:53:25.123Z,99406.19
2023-02-17T20:57:27.910Z,99414.91
2023-02-17T21:01:30.896Z,99408.09
2023-02-17T21:05:33.182Z,99398.78
2023-02-17T21:09:35.284Z,99391.59
2023-02-17T21:13:37.615Z,99388.56
2023-02-17T21:17:39.825Z,99374.16
2023-02-17T21:21:42.398Z,99362.09
2023-02-17T21:25:45.600Z,99370.56
2023-02-17T21:29:48.170Z,99362.97
2023-02-17T21:33:50.186Z,99355.22
2023-02-17T21:37:52.336Z,99336.50
2023-02-17T21:41:54.514Z,99332.19
2023-02-17T21:45:56.848Z,99330.78
2023-02-17T21:49:59.166Z,99342.22
2023-02-17T21:54:01.344Z,99338.53
2023-02-17T21:58:03.613Z,99321.31
2023-02-17T22:02:05.816Z,99344.81
2023-02-17T22:06:20.457Z,99344.41
2023-02-17T22:10:22.886Z,99343.19
2023-02-17T22:14:25.011Z,99371.63
2023-02-17T22:18:27.184Z,99376.06
2023-02-17T22:22:29.594Z,99355.28
2023-02-17T22:26:31.950Z,99368.94
2023-02-17T22:30:34.003Z,99358.78
2023-02-17T22:34:36.303Z,99338.94
2023-02-17T22:38:38.703Z,99327.97
2023-02-17T22:42:40.555Z,99335.94
2023-02-17T22:46:42.830Z,99335.00
2023-02-17T22:50:44.992Z,99372.00
2023-02-17T22:54:47.199Z,99363.50
2023-02-17T22:58:55.400Z,99390.94
2023-02-17T23:02:57.622Z,99383.09
2023-02-17T23:06:59.967Z,99385.50
2023-02-17T23:11:10.430Z,99368.00
2023-02-17T23:15:12.939Z,99402.47
2023-02-17T23:19:17.551Z,99404.34
2023-02-17T23:23:21.091Z,99417.34
2023-02-17T23:27:23.094Z,99423.31
2023-02-17T23:31:25.292Z,99391.53
2023-02-17T23:35:27.317Z,99388.13
2023-02-17T23:39:29.563Z,99421.91
2023-02-17T23:43:31.839Z,99471.28
2023-02-17T23:47:34.127Z,99463.53
2023-02-17T23:51:36.115Z,99485.03
2023-02-17T23:55:38.155Z,99494.44
2023-02-17T23:59:40.239Z,99518.97
